Time;durP1;ratioP1;P1;durP2;ratioP2;P2;SDS_P1;SDS_P2;PMS_P1;PMS_P2;Temp;Humidity;BMP_temperature;BMP_pressure;BME280_temperature;BME280_humidity;BME280_pressure;Samples;Min_cycle;Max_cycle;Signal;HPM_P1;HPM_P2
2021/08/19 00:01:54;;;;;;;4.85;2.05;;;15.10;91.30;;;;;;4891951;29;20035;-83
2021/08/19 00:04:19;;;;;;;3.28;2.00;;;15.20;91.30;;;;;;4900041;29;20025;-83
2021/08/19 00:06:45;;;;;;;3.92;2.40;;;15.10;91.20;;;;;;4893771;29;20620;-83
2021/08/19 00:09:11;;;;;;;3.72;2.85;;;15.10;91.60;;;;;;4914368;29;20040;-84
2021/08/19 00:11:37;;;;;;;5.57;2.50;;;15.10;91.40;;;;;;4911005;29;20063;-83
2021/08/19 00:14:02;;;;;;;4.35;2.50;;;15.20;91.40;;;;;;4895189;29;20036;-83
2021/08/19 00:16:28;;;;;;;3.00;2.03;;;15.10;91.40;;;;;;4890703;29;20513;-82
2021/08/19 00:18:54;;;;;;;4.35;2.92;;;15.10;91.50;;;;;;4897316;29;20135;-82
2021/08/19 00:21:19;;;;;;;4.53;2.30;;;15.10;91.60;;;;;;4893838;29;20071;-81
2021/08/19 00:23:45;;;;;;;5.90;3.10;;;15.10;92.10;;;;;;4889182;29;20024;-81
2021/08/19 00:26:11;;;;;;;5.10;2.88;;;15.00;92.00;;;;;;4906429;29;20528;-82
2021/08/19 00:28:37;;;;;;;3.47;2.45;;;15.00;91.90;;;;;;4907507;29;20052;-82
2021/08/19 00:31:03;;;;;;;4.07;2.42;;;15.00;92.10;;;;;;4907504;29;20029;-82
2021/08/19 00:33:29;;;;;;;4.57;3.10;;;15.00;92.00;;;;;;4909322;29;20024;-82
2021/08/19 00:35:54;;;;;;;4.72;3.08;;;15.10;92.10;;;;;;4890798;29;20032;-82
2021/08/19 00:38:21;;;;;;;6.43;2.83;;;15.00;92.00;;;;;;4910260;29;20398;-82
2021/08/19 00:40:47;;;;;;;3.50;2.33;;;15.00;92.10;;;;;;4899555;29;20095;-82
2021/08/19 00:43:12;;;;;;;5.50;2.70;;;15.10;92.10;;;;;;4898466;29;20032;-82
2021/08/19 00:45:38;;;;;;;3.63;2.90;;;15.10;92.10;;;;;;4897886;29;20425;-82
2021/08/19 00:48:06;;;;;;;5.35;2.95;;;15.10;92.30;;;;;;4916283;29;20040;-82
2021/08/19 00:50:32;;;;;;;6.75;2.60;;;15.10;92.30;;;;;;4909637;29;20040;-82
2021/08/19 00:53:01;;;;;;;3.78;2.28;;;15.10;92.10;;;;;;4894683;29;20028;-82
2021/08/19 00:55:27;;;;;;;4.47;2.45;;;15.10;92.10;;;;;;4896528;29;20039;-82
2021/08/19 00:57:55;;;;;;;3.17;2.20;;;15.10;92.10;;;;;;4902644;29;20512;-82
2021/08/19 01:00:21;;;;;;;3.13;2.35;;;15.20;91.90;;;;;;4898022;29;20028;-82
2021/08/19 01:02:48;;;;;;;4.80;2.40;;;15.10;92.20;;;;;;4913570;29;20088;-82
2021/08/19 01:05:18;;;;;;;3.75;2.17;;;15.10;92.30;;;;;;4897987;29;20457;-82
2021/08/19 01:07:45;;;;;;;3.10;1.90;;;15.20;92.20;;;;;;4907805;29;20060;-83
2021/08/19 01:10:11;;;;;;;4.20;1.95;;;15.20;92.20;;;;;;4900115;29;20042;-82
2021/08/19 01:12:37;;;;;;;6.45;2.28;;;15.10;92.30;;;;;;4913590;29;20477;-82
2021/08/19 01:15:03;;;;;;;3.95;2.58;;;15.10;92.40;;;;;;4898185;29;20091;-82
2021/08/19 01:17:30;;;;;;;5.43;2.63;;;15.10;92.20;;;;;;4893394;29;20024;-83
2021/08/19 01:19:57;;;;;;;4.22;2.63;;;15.10;92.30;;;;;;4890237;29;20076;-82
2021/08/19 01:22:24;;;;;;;3.85;2.30;;;15.10;92.30;;;;;;4898044;29;20028;-82
2021/08/19 01:24:50;;;;;;;4.93;2.45;;;15.20;92.20;;;;;;4901746;29;20048;-82
2021/08/19 01:27:17;;;;;;;3.53;2.50;;;15.20;92.10;;;;;;4894438;29;20081;-82
2021/08/19 01:29:45;;;;;;;5.40;2.60;;;15.20;92.00;;;;;;4903664;29;20035;-82
2021/08/19 01:32:11;;;;;;;5.95;2.47;;;15.20;92.00;;;;;;4910095;29;20044;-82
2021/08/19 01:34:38;;;;;;;3.60;2.63;;;15.20;92.00;;;;;;4918113;29;20024;-82
2021/08/19 01:37:05;;;;;;;4.60;2.50;;;15.20;92.10;;;;;;4892871;29;20553;-83
2021/08/19 01:39:31;;;;;;;4.47;2.58;;;15.20;92.30;;;;;;4917786;29;20498;-82
2021/08/19 01:41:57;;;;;;;3.80;2.60;;;15.20;92.20;;;;;;4899196;29;20051;-82
2021/08/19 01:44:23;;;;;;;3.85;2.55;;;15.20;92.00;;;;;;4889659;29;20059;-82
2021/08/19 01:46:57;;;;;;;3.42;2.65;;;15.20;92.10;;;;;;4909880;29;20048;-82
2021/08/19 01:49:25;;;;;;;4.03;3.05;;;15.20;92.00;;;;;;4893372;29;20032;-82
2021/08/19 01:51:52;;;;;;;3.92;2.30;;;15.20;92.10;;;;;;4893678;29;20063;-82
2021/08/19 01:54:18;;;;;;;5.90;2.63;;;15.20;92.10;;;;;;4886280;29;20033;-82
2021/08/19 01:56:43;;;;;;;4.40;2.75;;;15.20;92.20;;;;;;4897241;29;20035;-82
2021/08/19 01:59:10;;;;;;;4.53;2.72;;;15.20;92.30;;;;;;4895922;29;20091;-82
2021/08/19 02:01:35;;;;;;;3.80;2.55;;;15.10;92.40;;;;;;4902723;29;20040;-82
2021/08/19 02:04:04;;;;;;;3.67;2.63;;;15.10;92.40;;;;;;4916994;29;20036;-82
2021/08/19 02:06:29;;;;;;;5.82;2.80;;;15.20;92.40;;;;;;4890585;29;20441;-82
2021/08/19 02:08:55;;;;;;;5.45;2.67;;;15.10;92.40;;;;;;4895045;29;20036;-82
2021/08/19 02:11:21;;;;;;;5.10;2.70;;;15.10;92.80;;;;;;4909225;29;20032;-82
2021/08/19 02:13:47;;;;;;;4.07;2.78;;;15.20;92.50;;;;;;4890512;29;20028;-82
2021/08/19 02:16:13;;;;;;;4.70;2.70;;;15.20;92.40;;;;;;4894652;29;20060;-82
2021/08/19 02:18:39;;;;;;;5.38;2.42;;;15.20;92.60;;;;;;4915116;29;20059;-82
2021/08/19 02:21:04;;;;;;;5.00;2.45;;;15.20;92.50;;;;;;4898931;29;20056;-82
2021/08/19 02:23:30;;;;;;;5.03;2.95;;;15.20;92.20;;;;;;4914912;29;20029;-82
2021/08/19 02:25:56;;;;;;;3.95;2.75;;;15.20;92.40;;;;;;4909338;29;21299;-82
2021/08/19 02:28:21;;;;;;;3.67;2.92;;;15.20;92.20;;;;;;4897643;29;20032;-82
2021/08/19 02:30:47;;;;;;;5.03;2.90;;;15.20;92.30;;;;;;4915293;28;20067;-82
2021/08/19 02:33:13;;;;;;;5.15;2.83;;;15.20;92.30;;;;;;4920308;29;20032;-83
2021/08/19 02:35:38;;;;;;;4.32;2.63;;;15.30;92.10;;;;;;4914475;29;20032;-82
2021/08/19 02:38:07;;;;;;;5.80;2.90;;;15.30;92.30;;;;;;4900860;29;20028;-83
2021/08/19 02:40:35;;;;;;;3.75;2.58;;;15.30;92.40;;;;;;4919023;29;20040;-82
2021/08/19 02:43:01;;;;;;;4.50;2.60;;;15.20;92.30;;;;;;4894925;29;20032;-82
2021/08/19 02:45:27;;;;;;;3.83;2.38;;;15.30;92.20;;;;;;4914277;29;20032;-82
2021/08/19 02:47:52;;;;;;;3.50;2.58;;;15.30;92.30;;;;;;4916240;29;20484;-82
2021/08/19 02:50:18;;;;;;;2.88;1.95;;;15.30;92.40;;;;;;4898863;29;20067;-81
2021/08/19 02:52:44;;;;;;;3.88;2.63;;;15.30;92.20;;;;;;4899973;29;20091;-82
2021/08/19 02:55:10;;;;;;;5.15;2.47;;;15.30;92.30;;;;;;4903049;29;20052;-82
2021/08/19 02:57:36;;;;;;;3.38;2.78;;;15.20;92.50;;;;;;4916243;29;20029;-83
2021/08/19 03:00:03;;;;;;;3.78;2.53;;;15.20;92.40;;;;;;4910371;29;20152;-82
2021/08/19 03:02:29;;;;;;;5.03;2.40;;;15.30;92.30;;;;;;4909937;29;20032;-83
2021/08/19 03:04:54;;;;;;;4.13;2.83;;;15.30;92.30;;;;;;4902509;29;20031;-82
2021/08/19 03:07:20;;;;;;;5.63;3.13;;;15.30;92.20;;;;;;4893592;29;20031;-82
2021/08/19 03:09:46;;;;;;;3.45;2.38;;;15.30;92.20;;;;;;4912253;29;20040;-82
2021/08/19 03:12:11;;;;;;;3.85;2.58;;;15.30;92.20;;;;;;4903076;29;20060;-82
2021/08/19 03:14:37;;;;;;;5.05;3.03;;;15.30;92.30;;;;;;4900688;29;20115;-82
2021/08/19 03:17:04;;;;;;;2.92;2.17;;;15.30;92.30;;;;;;4893255;29;20080;-82
2021/08/19 03:19:30;;;;;;;3.78;2.30;;;15.40;92.20;;;;;;4916852;29;20124;-82
2021/08/19 03:21:56;;;;;;;3.88;2.83;;;15.40;92.20;;;;;;4898990;29;20123;-83
2021/08/19 03:24:21;;;;;;;4.97;2.72;;;15.30;92.20;;;;;;4910402;29;20087;-82
2021/08/19 03:26:47;;;;;;;6.85;2.75;;;15.30;92.50;;;;;;4900189;29;20047;-83
2021/08/19 03:29:13;;;;;;;4.05;2.60;;;15.30;92.90;;;;;;4907411;29;20048;-82
2021/08/19 03:31:38;;;;;;;6.05;2.85;;;15.30;92.50;;;;;;4895359;29;20028;-82
2021/08/19 03:34:04;;;;;;;3.70;2.60;;;15.30;92.40;;;;;;4888409;29;20463;-82
2021/08/19 03:36:30;;;;;;;4.10;2.55;;;15.30;92.50;;;;;;4894986;29;20032;-82
2021/08/19 03:38:55;;;;;;;4.40;2.65;;;15.30;92.40;;;;;;4900097;29;20473;-82
2021/08/19 03:41:22;;;;;;;5.22;2.88;;;15.30;92.50;;;;;;4894673;29;20028;-82
2021/08/19 03:43:47;;;;;;;5.10;3.20;;;15.30;92.30;;;;;;4897244;29;20040;-82
2021/08/19 03:46:14;;;;;;;4.43;2.92;;;15.20;92.70;;;;;;4917294;29;20107;-83
2021/08/19 03:48:41;;;;;;;3.17;2.88;;;15.20;92.60;;;;;;4912755;29;20528;-82
2021/08/19 03:51:09;;;;;;;4.85;3.03;;;15.20;92.60;;;;;;4914172;29;20099;-82
2021/08/19 03:53:36;;;;;;;5.72;2.67;;;15.20;92.80;;;;;;4913263;29;20079;-82
2021/08/19 03:56:03;;;;;;;3.55;2.45;;;15.20;92.80;;;;;;4904764;29;20028;-82
2021/08/19 03:58:28;;;;;;;5.03;2.80;;;15.20;92.70;;;;;;4908406;29;20071;-82
2021/08/19 04:00:54;;;;;;;4.53;2.55;;;15.20;92.80;;;;;;4913827;29;20040;-82
2021/08/19 04:03:19;;;;;;;5.53;3.05;;;15.20;92.70;;;;;;4892015;29;20057;-82
2021/08/19 04:05:45;;;;;;;4.53;2.70;;;15.20;92.70;;;;;;4904979;29;20051;-82
2021/08/19 04:08:11;;;;;;;5.65;3.22;;;15.20;92.90;;;;;;4906703;29;20032;-82
2021/08/19 04:10:36;;;;;;;4.22;2.40;;;15.20;92.80;;;;;;4900912;29;20044;-82
2021/08/19 04:13:02;;;;;;;4.05;2.75;;;15.20;92.60;;;;;;4899970;29;20035;-82
2021/08/19 04:15:28;;;;;;;4.35;2.80;;;15.20;92.80;;;;;;4917394;29;20036;-82
2021/08/19 04:17:55;;;;;;;6.43;2.63;;;15.20;92.80;;;;;;4895844;29;20040;-82
2021/08/19 04:20:21;;;;;;;5.40;2.80;;;15.20;92.70;;;;;;4909789;29;20032;-82
2021/08/19 04:22:47;;;;;;;3.65;2.38;;;15.20;92.50;;;;;;4905993;29;20029;-82
2021/08/19 04:25:13;;;;;;;3.42;2.35;;;15.20;92.50;;;;;;4900436;29;20032;-82
2021/08/19 04:27:40;;;;;;;4.90;2.53;;;15.20;92.50;;;;;;4913641;29;20099;-82
2021/08/19 04:30:06;;;;;;;4.72;2.60;;;15.20;92.60;;;;;;4908905;29;20040;-82
2021/08/19 04:32:32;;;;;;;6.45;2.92;;;15.20;92.60;;;;;;4895420;29;20127;-82
2021/08/19 04:34:58;;;;;;;4.50;2.50;;;15.20;92.70;;;;;;4909629;29;20056;-82
2021/08/19 04:37:25;;;;;;;3.58;2.40;;;15.20;92.70;;;;;;4908047;29;20031;-82
2021/08/19 04:39:51;;;;;;;3.60;2.50;;;15.20;92.80;;;;;;4897287;29;20028;-82
2021/08/19 04:42:17;;;;;;;3.13;2.60;;;15.20;92.70;;;;;;4899105;29;20087;-82
2021/08/19 04:44:43;;;;;;;3.67;2.50;;;15.20;92.70;;;;;;4907892;29;20107;-82
2021/08/19 04:47:09;;;;;;;2.97;2.38;;;15.20;92.90;;;;;;4902090;29;20126;-82
2021/08/19 04:49:34;;;;;;;3.92;2.53;;;15.20;93.00;;;;;;4895560;29;20052;-82
2021/08/19 04:52:00;;;;;;;3.92;2.60;;;15.10;92.90;;;;;;4893019;29;20127;-82
2021/08/19 04:54:26;;;;;;;3.97;2.50;;;15.20;93.10;;;;;;4900492;29;20896;-82
2021/08/19 04:56:51;;;;;;;7.28;3.17;;;15.20;93.00;;;;;;4894784;29;20036;-82
2021/08/19 04:59:17;;;;;;;3.30;2.50;;;15.20;92.90;;;;;;4895720;29;20025;-83
2021/08/19 05:01:43;;;;;;;3.03;2.50;;;15.20;92.90;;;;;;4917172;29;20540;-83
2021/08/19 05:04:09;;;;;;;5.22;2.60;;;15.20;92.70;;;;;;4901136;29;20039;-82
2021/08/19 05:06:36;;;;;;;4.13;2.78;;;15.30;92.70;;;;;;4914310;29;20050;-82
2021/08/19 05:09:06;;;;;;;2.92;2.25;;;15.30;92.80;;;;;;4913012;29;20043;-82
2021/08/19 05:11:32;;;;;;;3.05;2.20;;;15.30;93.00;;;;;;4893219;29;20029;-82
2021/08/19 05:14:01;;;;;;;4.28;2.45;;;15.30;93.10;;;;;;4899509;29;20498;-82
2021/08/19 05:16:28;;;;;;;4.22;2.38;;;15.30;93.00;;;;;;4900955;29;20035;-82
2021/08/19 05:18:54;;;;;;;5.00;2.63;;;15.30;92.80;;;;;;4887861;29;20490;-82
2021/08/19 05:21:20;;;;;;;3.35;2.22;;;15.30;92.80;;;;;;4887373;29;20085;-82
2021/08/19 05:23:45;;;;;;;3.85;2.47;;;15.30;92.60;;;;;;4890157;29;20428;-82
2021/08/19 05:26:11;;;;;;;3.83;2.72;;;15.40;92.70;;;;;;4891143;29;20482;-83
2021/08/19 05:28:37;;;;;;;5.30;2.70;;;15.40;92.60;;;;;;4884941;29;20490;-82
2021/08/19 05:31:03;;;;;;;10.13;3.25;;;15.40;92.50;;;;;;4889914;29;20037;-82
2021/08/19 05:33:29;;;;;;;6.60;3.40;;;15.40;92.60;;;;;;4896686;29;20020;-82
2021/08/19 05:35:55;;;;;;;7.90;3.38;;;15.40;92.50;;;;;;4888968;29;20035;-82
2021/08/19 05:38:20;;;;;;;7.78;3.92;;;15.40;92.80;;;;;;4891373;29;20413;-82
2021/08/19 05:40:46;;;;;;;5.70;3.78;;;15.50;92.40;;;;;;4887383;29;21410;-82
2021/08/19 05:43:12;;;;;;;6.03;3.88;;;15.50;92.30;;;;;;4891275;29;20069;-82
2021/08/19 05:45:37;;;;;;;4.70;3.28;;;15.40;92.40;;;;;;4890778;29;20034;-83
2021/08/19 05:48:04;;;;;;;5.88;3.55;;;15.50;92.20;;;;;;4900908;29;20029;-83
2021/08/19 05:50:34;;;;;;;5.75;3.47;;;15.50;92.30;;;;;;4890191;29;20036;-84
2021/08/19 05:53:01;;;;;;;6.35;3.28;;;15.50;92.30;;;;;;4897782;29;20032;-82
2021/08/19 05:55:26;;;;;;;6.50;3.58;;;15.50;92.50;;;;;;4896422;29;20025;-83
2021/08/19 05:57:52;;;;;;;4.70;3.08;;;15.60;92.50;;;;;;4903944;29;20084;-83
2021/08/19 06:00:22;;;;;;;4.53;2.92;;;15.60;92.40;;;;;;4900878;29;20817;-83
2021/08/19 06:02:48;;;;;;;5.93;3.60;;;15.60;92.60;;;;;;4912259;29;20037;-83
2021/08/19 06:05:14;;;;;;;3.80;2.72;;;15.60;92.20;;;;;;4885605;29;20031;-83
2021/08/19 06:07:40;;;;;;;5.05;3.45;;;15.70;92.50;;;;;;4889298;29;20119;-83
2021/08/19 06:10:06;;;;;;;5.05;3.38;;;15.70;92.50;;;;;;4906170;29;20031;-83
2021/08/19 06:12:33;;;;;;;4.20;2.80;;;15.80;92.50;;;;;;4899651;29;20059;-84
2021/08/19 06:14:59;;;;;;;4.63;2.65;;;15.80;92.50;;;;;;4899153;29;20036;-83
2021/08/19 06:17:25;;;;;;;4.38;3.03;;;15.80;92.10;;;;;;4912956;29;20036;-82
2021/08/19 06:19:50;;;;;;;8.57;3.60;;;15.70;92.20;;;;;;4908990;29;20116;-82
2021/08/19 06:22:16;;;;;;;5.28;3.22;;;15.80;92.00;;;;;;4893012;29;20025;-82
2021/08/19 06:24:42;;;;;;;4.80;2.80;;;15.80;91.90;;;;;;4899668;29;20055;-82
2021/08/19 06:27:08;;;;;;;3.95;2.63;;;15.80;91.90;;;;;;4910327;29;20128;-82
2021/08/19 06:29:33;;;;;;;5.30;3.03;;;15.80;92.00;;;;;;4895019;29;20029;-82
2021/08/19 06:31:59;;;;;;;5.10;3.10;;;15.80;92.00;;;;;;4889804;29;20051;-83
2021/08/19 06:34:25;;;;;;;6.40;3.25;;;15.90;92.10;;;;;;4911604;29;20040;-82
2021/08/19 06:36:51;;;;;;;6.13;2.83;;;15.90;92.20;;;;;;4889946;29;20041;-82
2021/08/19 06:39:18;;;;;;;4.25;2.80;;;15.90;92.10;;;;;;4906530;29;20037;-82
2021/08/19 06:41:44;;;;;;;6.20;3.08;;;16.00;91.70;;;;;;4895375;29;20033;-82
2021/08/19 06:44:10;;;;;;;4.13;3.10;;;16.00;92.30;;;;;;4888339;29;20116;-82
2021/08/19 06:46:36;;;;;;;4.53;2.75;;;16.10;92.10;;;;;;4895793;29;20091;-82
2021/08/19 06:49:01;;;;;;;3.83;2.90;;;16.10;91.90;;;;;;4905214;29;20033;-83
2021/08/19 06:51:27;;;;;;;5.15;2.80;;;16.00;91.30;;;;;;4881899;29;20029;-83
2021/08/19 06:53:53;;;;;;;5.25;2.97;;;16.10;91.60;;;;;;4893260;29;20060;-83
2021/08/19 06:56:18;;;;;;;4.70;3.20;;;16.10;91.80;;;;;;4888999;29;20505;-83
2021/08/19 06:58:44;;;;;;;4.63;3.05;;;16.20;92.00;;;;;;4903621;29;20073;-83
2021/08/19 07:01:10;;;;;;;4.38;2.47;;;16.20;91.50;;;;;;4888342;29;20045;-84
2021/08/19 07:03:36;;;;;;;4.63;2.70;;;16.20;91.30;;;;;;4888475;29;20112;-82
2021/08/19 07:06:01;;;;;;;3.25;2.60;;;16.20;91.70;;;;;;4892210;29;20138;-83
2021/08/19 07:08:27;;;;;;;5.18;3.08;;;16.20;91.30;;;;;;4891093;29;20032;-82
2021/08/19 07:10:53;;;;;;;4.88;2.60;;;16.30;91.30;;;;;;4892333;29;20048;-82
2021/08/19 07:13:19;;;;;;;4.68;2.85;;;16.30;91.50;;;;;;4887717;29;20028;-82
2021/08/19 07:15:45;;;;;;;3.70;2.70;;;16.30;92.00;;;;;;4889995;29;20029;-82
2021/08/19 07:18:11;;;;;;;4.25;2.63;;;16.40;92.00;;;;;;4889851;29;20096;-81
2021/08/19 07:20:37;;;;;;;4.10;3.00;;;16.40;90.70;;;;;;4904084;29;20768;-83
2021/08/19 07:23:03;;;;;;;2.67;2.20;;;16.40;90.60;;;;;;4891667;29;20025;-82
2021/08/19 07:25:28;;;;;;;4.57;2.10;;;16.40;90.50;;;;;;4913058;29;20923;-82
2021/08/19 07:27:54;;;;;;;3.17;2.28;;;16.40;90.20;;;;;;4916812;29;20508;-82
2021/08/19 07:30:20;;;;;;;3.15;2.33;;;16.40;90.20;;;;;;4907980;29;20101;-82
2021/08/19 07:32:46;;;;;;;3.17;2.33;;;16.50;90.00;;;;;;4906761;29;20028;-83
2021/08/19 07:35:12;;;;;;;2.25;1.85;;;16.40;90.00;;;;;;4889600;29;20036;-82
2021/08/19 07:37:49;;;;;;;2.10;1.90;;;16.40;90.50;;;;;;4900945;29;20386;-83
2021/08/19 07:40:17;;;;;;;3.47;2.00;;;16.50;90.70;;;;;;4897052;29;20032;-82
2021/08/19 07:42:43;;;;;;;2.95;2.10;;;16.50;90.80;;;;;;4899074;29;20036;-83
2021/08/19 07:45:09;;;;;;;2.95;2.40;;;16.50;90.40;;;;;;4899845;29;20024;-83
2021/08/19 07:47:35;;;;;;;2.22;2.00;;;16.60;90.30;;;;;;4900391;29;20056;-82
2021/08/19 07:50:01;;;;;;;2.53;2.05;;;16.60;89.40;;;;;;4909955;29;20585;-83
2021/08/19 07:52:27;;;;;;;2.22;1.88;;;16.70;88.90;;;;;;4916452;29;20031;-83
2021/08/19 07:54:54;;;;;;;2.88;2.00;;;16.70;88.70;;;;;;4917719;29;20036;-83
2021/08/19 07:57:20;;;;;;;2.80;1.83;;;16.70;89.70;;;;;;4904328;29;20029;-83
2021/08/19 07:59:45;;;;;;;3.95;1.90;;;16.80;90.30;;;;;;4913757;29;20034;-83
2021/08/19 08:02:11;;;;;;;2.55;2.05;;;16.90;90.00;;;;;;4915733;29;20044;-83
2021/08/19 08:04:37;;;;;;;3.75;1.85;;;16.90;89.00;;;;;;4910845;29;20497;-82
2021/08/19 08:07:03;;;;;;;2.33;1.73;;;16.90;89.90;;;;;;4894555;29;20024;-82
2021/08/19 08:09:29;;;;;;;2.28;2.05;;;16.90;88.40;;;;;;4895598;29;20032;-82
2021/08/19 08:11:56;;;;;;;3.65;1.77;;;17.00;88.50;;;;;;4893153;29;20036;-83
2021/08/19 08:14:21;;;;;;;1.83;1.67;;;17.00;87.70;;;;;;4895574;29;20036;-84
2021/08/19 08:16:47;;;;;;;3.22;1.60;;;17.00;88.40;;;;;;4916443;29;20083;-84
2021/08/19 08:19:16;;;;;;;2.25;1.95;;;17.10;88.50;;;;;;4896740;29;20462;-84
2021/08/19 08:21:42;;;;;;;2.38;1.70;;;17.10;87.30;;;;;;4908717;29;20039;-84
2021/08/19 08:24:08;;;;;;;3.13;2.15;;;17.10;86.00;;;;;;4908484;29;20485;-84
2021/08/19 08:26:34;;;;;;;3.55;1.60;;;17.20;86.10;;;;;;4894083;29;20119;-83
2021/08/19 08:29:00;;;;;;;2.47;1.60;;;17.30;85.80;;;;;;4909119;29;20060;-82
2021/08/19 08:31:26;;;;;;;22.98;21.25;;;17.20;85.60;;;;;;4898887;29;20040;-84
2021/08/19 08:33:51;;;;;;;6.38;5.22;;;17.30;85.40;;;;;;4887001;29;20371;-84
2021/08/19 08:36:17;;;;;;;2.13;1.92;;;17.30;86.30;;;;;;4907633;29;20027;-83
2021/08/19 08:38:44;;;;;;;2.33;1.73;;;17.40;85.80;;;;;;4910457;29;20027;-84
2021/08/19 08:41:12;;;;;;;2.08;1.67;;;17.50;84.70;;;;;;4903401;29;20036;-84
2021/08/19 08:43:39;;;;;;;2.00;1.60;;;17.50;85.60;;;;;;4889218;29;20036;-84
2021/08/19 08:46:07;;;;;;;1.77;1.50;;;17.60;84.10;;;;;;4896140;29;20572;-84
2021/08/19 08:48:33;;;;;;;1.80;1.55;;;17.60;83.90;;;;;;4903512;29;20104;-84
2021/08/19 08:50:59;;;;;;;2.13;1.63;;;17.70;82.50;;;;;;4886952;29;20040;-84
2021/08/19 08:53:26;;;;;;;1.55;1.45;;;17.70;80.90;;;;;;4909338;29;20032;-84
2021/08/19 08:55:52;;;;;;;2.08;1.48;;;17.70;80.20;;;;;;4910504;29;20454;-84
2021/08/19 08:58:18;;;;;;;2.10;1.65;;;17.90;81.60;;;;;;4890127;29;20036;-84
2021/08/19 09:00:46;;;;;;;2.05;1.48;;;17.90;80.60;;;;;;4895693;28;20589;-84
2021/08/19 09:03:13;;;;;;;1.60;1.50;;;18.10;80.40;;;;;;4898552;29;20071;-84
2021/08/19 09:05:44;;;;;;;1.42;1.30;;;18.10;77.40;;;;;;4899473;29;20043;-84
2021/08/19 09:08:18;;;;;;;2.80;1.60;;;18.20;80.20;;;;;;4910294;29;20103;-84
2021/08/19 09:10:46;;;;;;;1.83;1.35;;;18.10;76.60;;;;;;4896273;29;20033;-85
2021/08/19 09:13:17;;;;;;;2.83;1.60;;;18.20;79.40;;;;;;4896080;29;20024;-84
2021/08/19 09:15:44;;;;;;;4.35;1.50;;;18.30;77.90;;;;;;4914407;29;20036;-84
2021/08/19 09:18:11;;;;;;;3.50;1.58;;;18.40;77.50;;;;;;4891935;29;20035;-85
2021/08/19 09:20:40;;;;;;;1.95;1.50;;;18.40;76.90;;;;;;4906149;29;20024;-84
2021/08/19 09:23:07;;;;;;;2.97;1.40;;;18.40;77.60;;;;;;4907566;29;20031;-85
2021/08/19 09:25:35;;;;;;;1.50;1.40;;;18.40;75.50;;;;;;4891623;29;20119;-85
2021/08/19 09:28:09;;;;;;;1.80;1.33;;;18.60;77.50;;;;;;4896623;29;20040;-85
2021/08/19 09:30:36;;;;;;;1.38;1.27;;;18.70;75.60;;;;;;4900935;29;20048;-85
2021/08/19 09:33:07;;;;;;;2.80;1.38;;;18.70;76.40;;;;;;4894952;29;20043;-84
2021/08/19 09:35:33;;;;;;;1.85;1.40;;;18.90;77.50;;;;;;4912185;29;20466;-84
2021/08/19 09:38:11;;;;;;;1.40;1.30;;;19.10;76.80;;;;;;4888279;29;20068;-84
2021/08/19 09:40:38;;;;;;;1.60;1.45;;;19.20;72.90;;;;;;4903197;29;20111;-84
2021/08/19 09:43:04;;;;;;;2.38;1.60;;;19.10;73.60;;;;;;4907537;29;20033;-85
2021/08/19 09:45:30;;;;;;;2.17;1.67;;;19.20;73.50;;;;;;4896306;29;20032;-85
2021/08/19 09:48:08;;;;;;;1.45;1.23;;;19.10;72.70;;;;;;4895251;29;20132;-85
2021/08/19 09:50:34;;;;;;;;;;;19.00;72.40;;;;;;4888011;29;20036;-84
2021/08/19 09:53:16;;;;;;;1.88;1.30;;;18.80;72.90;;;;;;4884662;29;20006;-84
2021/08/19 09:55:42;;;;;;;1.55;1.30;;;18.80;72.60;;;;;;4888071;29;20382;-84
2021/08/19 09:58:08;;;;;;;1.63;1.40;;;18.90;73.80;;;;;;4894408;29;20115;-83
2021/08/19 10:00:40;;;;;;;2.50;1.42;;;18.90;74.20;;;;;;4895041;28;20496;-85
2021/08/19 10:03:06;;;;;;;3.10;1.42;;;18.80;73.20;;;;;;4897576;29;20051;-85
2021/08/19 10:05:31;;;;;;;1.38;1.20;;;18.80;74.70;;;;;;4916328;29;20028;-84
2021/08/19 10:08:01;;;;;;;2.05;1.38;;;18.90;73.50;;;;;;4897422;29;20572;-84
2021/08/19 10:10:28;;;;;;;1.30;1.20;;;18.90;76.20;;;;;;4883896;29;20051;-84
2021/08/19 10:12:58;;;;;;;1.90;1.60;;;18.90;74.50;;;;;;4895597;29;20024;-84
2021/08/19 10:15:23;;;;;;;2.75;1.30;;;18.80;72.90;;;;;;4895438;29;20024;-84
2021/08/19 10:17:52;;;;;;;2.33;1.40;;;18.80;73.50;;;;;;4900869;29;20389;-84
2021/08/19 10:20:22;;;;;;;1.55;1.30;;;18.70;73.50;;;;;;4894068;29;20512;-84
2021/08/19 10:22:50;;;;;;;1.88;1.65;;;18.60;72.70;;;;;;4912095;29;20028;-84
2021/08/19 10:25:24;;;;;;;1.52;1.38;;;18.70;74.10;;;;;;4895572;29;20025;-84
2021/08/19 10:28:27;;;;;;;1.38;1.27;;;18.80;75.00;;;;;;4897531;29;20040;-84
2021/08/19 10:30:57;;;;;;;1.92;1.33;;;18.90;74.70;;;;;;4913396;28;20044;-84
2021/08/19 10:33:35;;;;;;;1.30;1.20;;;18.80;74.00;;;;;;4921119;29;20051;-84
2021/08/19 10:36:30;;;;;;;2.28;1.52;;;18.80;73.60;;;;;;4907548;29;20164;-85
2021/08/19 10:39:17;;;;;;;1.15;1.05;;;18.70;71.80;;;;;;4912472;29;20569;-84
2021/08/19 10:41:43;;;;;;;2.92;1.48;;;18.80;73.00;;;;;;4909657;29;20037;-85
2021/08/19 10:44:10;;;;;;;1.30;1.15;;;18.90;73.40;;;;;;4909600;29;20050;-84
2021/08/19 10:46:38;;;;;;;1.52;1.40;;;19.00;72.60;;;;;;4906412;29;20025;-84
2021/08/19 10:49:04;;;;;;;3.15;1.42;;;19.00;71.40;;;;;;4898406;29;20437;-82
2021/08/19 10:51:30;;;;;;;1.30;1.20;;;19.10;73.10;;;;;;4893852;29;20036;-85
2021/08/19 10:53:55;;;;;;;1.90;1.30;;;19.20;71.50;;;;;;4896890;29;20614;-84
2021/08/19 10:56:42;;;;;;;1.90;1.80;;;19.30;72.60;;;;;;4891559;29;20028;-84
2021/08/19 10:59:27;;;;;;;1.52;1.38;;;19.50;73.90;;;;;;4905748;29;20489;-85
2021/08/19 11:01:53;;;;;;;2.25;1.33;;;19.40;71.00;;;;;;4908804;29;20544;-85
2021/08/19 11:04:46;;;;;;;1.30;1.20;;;19.50;71.70;;;;;;4915699;29;20060;-84
2021/08/19 11:08:02;;;;;;;1.20;1.10;;;19.60;73.00;;;;;;4899557;29;20100;-84
2021/08/19 11:10:36;;;;;;;2.60;1.50;;;19.70;71.40;;;;;;4891285;29;20040;-84
2021/08/19 11:13:08;;;;;;;1.48;1.35;;;19.70;69.40;;;;;;4888930;29;20560;-84
2021/08/19 11:15:36;;;;;;;2.55;1.40;;;19.80;71.00;;;;;;4901577;29;20083;-84
2021/08/19 11:18:03;;;;;;;1.90;1.67;;;19.90;70.30;;;;;;4898527;29;20028;-84
2021/08/19 11:20:31;;;;;;;1.63;1.35;;;20.00;67.90;;;;;;4907355;29;20059;-84
2021/08/19 11:23:02;;;;;;;1.40;1.30;;;20.10;70.10;;;;;;4897341;29;20032;-85
2021/08/19 11:25:29;;;;;;;1.63;1.25;;;20.10;69.30;;;;;;4901200;29;20043;-84
2021/08/19 11:27:55;;;;;;;1.52;1.35;;;20.10;71.00;;;;;;4896240;29;20028;-84
2021/08/19 11:30:34;;;;;;;1.35;1.23;;;20.10;69.80;;;;;;4901155;29;20524;-83
2021/08/19 11:33:29;;;;;;;1.88;1.30;;;19.90;69.40;;;;;;4910111;29;20036;-83
2021/08/19 11:36:03;;;;;;;1.98;1.40;;;19.80;69.00;;;;;;4897392;29;20461;-84
2021/08/19 11:38:29;;;;;;;3.30;1.50;;;19.80;70.10;;;;;;4887476;29;20124;-84
2021/08/19 11:40:58;;;;;;;1.85;1.30;;;19.90;70.70;;;;;;4893157;29;20111;-84
2021/08/19 11:43:29;;;;;;;1.50;1.33;;;19.90;68.20;;;;;;4908453;29;20119;-84
2021/08/19 11:46:13;;;;;;;2.45;1.83;;;20.00;68.90;;;;;;4914141;29;20035;-84
2021/08/19 11:48:57;;;;;;;1.77;1.23;;;19.90;67.20;;;;;;4899296;29;20032;-84
2021/08/19 11:51:27;;;;;;;1.40;1.20;;;20.00;69.00;;;;;;4917633;29;20397;-84
2021/08/19 11:53:56;;;;;;;1.98;1.52;;;20.10;69.40;;;;;;4915262;29;20056;-84
2021/08/19 11:56:32;;;;;;;1.85;1.50;;;20.30;70.00;;;;;;4901935;29;20034;-83
2021/08/19 11:59:09;;;;;;;2.17;1.45;;;20.40;67.90;;;;;;4908701;29;20164;-84
2021/08/19 12:01:37;;;;;;;1.67;1.58;;;20.40;69.60;;;;;;4889673;29;20032;-84
2021/08/19 12:04:05;;;;;;;1.55;1.30;;;20.40;67.50;;;;;;4896970;29;20059;-84
2021/08/19 12:06:34;;;;;;;1.92;1.40;;;20.50;67.10;;;;;;4908021;29;20035;-85
2021/08/19 12:09:10;;;;;;;1.45;1.35;;;20.40;64.80;;;;;;4896596;29;20490;-85
2021/08/19 12:11:43;;;;;;;2.03;1.48;;;20.60;68.80;;;;;;4912266;29;20123;-84
2021/08/19 12:14:12;;;;;;;2.13;1.45;;;20.60;67.10;;;;;;4910746;29;20027;-85
2021/08/19 12:16:50;;;;;;;1.67;1.35;;;20.60;66.80;;;;;;4896302;29;20021;-84
2021/08/19 12:19:17;;;;;;;;;;;20.50;64.30;;;;;;4910420;29;20073;-85
2021/08/19 12:21:51;;;;;;;1.38;1.27;;;20.30;63.70;;;;;;4899782;29;20022;-85
2021/08/19 12:24:37;;;;;;;1.30;1.10;;;20.40;67.10;;;;;;4908838;29;20040;-85
2021/08/19 12:27:14;;;;;;;3.22;1.55;;;20.50;67.90;;;;;;4911529;29;20092;-85
2021/08/19 12:29:46;;;;;;;13.63;4.63;;;20.40;65.00;;;;;;4901148;29;20062;-81
2021/08/19 12:32:28;;;;;;;5.82;2.42;;;20.30;68.70;;;;;;4908824;28;20036;-84
2021/08/19 12:35:13;;;;;;;1.90;1.23;;;20.30;69.30;;;;;;4915681;29;20051;-84
2021/08/19 12:37:56;;;;;;;25.35;6.68;;;20.20;69.50;;;;;;4897081;29;20059;-84
2021/08/19 12:40:31;;;;;;;8.93;3.08;;;20.20;73.30;;;;;;4896690;29;20032;-84
2021/08/19 12:43:08;;;;;;;8.25;2.30;;;20.30;72.80;;;;;;4912177;29;20397;-83
2021/08/19 12:45:35;;;;;;;7.28;2.00;;;20.30;70.60;;;;;;4894578;29;20367;-83
2021/08/19 12:48:04;;;;;;;2.17;1.65;;;20.20;70.40;;;;;;4893416;29;20040;-83
2021/08/19 12:50:31;;;;;;;2.72;1.67;;;20.30;72.60;;;;;;4916908;29;20028;-84
2021/08/19 12:53:11;;;;;;;2.63;1.70;;;20.30;71.00;;;;;;4892246;29;20043;-85